sensor_id;sensor_type;location;lat;lon;timestamp;P1;durP1;ratioP1;P2;durP2;ratioP2
13704;SDS011;6924;52.122;9.952;2023-05-19T00:00:25;1.40;;;1.30;;
13704;SDS011;6924;52.122;9.952;2023-05-19T00:02:52;1.07;;;0.90;;
13704;SDS011;6924;52.122;9.952;2023-05-19T00:05:20;1.73;;;0.83;;
13704;SDS011;6924;52.122;9.952;2023-05-19T00:07:47;1.63;;;1.00;;
13704;SDS011;6924;52.122;9.952;2023-05-19T00:10:17;2.13;;;1.10;;
13704;SDS011;6924;52.122;9.952;2023-05-19T00:12:45;1.90;;;1.50;;
13704;SDS011;6924;52.122;9.952;2023-05-19T00:15:12;2.20;;;1.00;;
13704;SDS011;6924;52.122;9.952;2023-05-19T00:17:39;5.50;;;0.90;;
13704;SDS011;6924;52.122;9.952;2023-05-19T00:20:06;2.47;;;1.37;;
13704;SDS011;6924;52.122;9.952;2023-05-19T00:22:33;1.50;;;1.17;;
13704;SDS011;6924;52.122;9.952;2023-05-19T00:25:00;1.40;;;1.30;;
13704;SDS011;6924;52.122;9.952;2023-05-19T00:27:28;1.47;;;1.23;;
13704;SDS011;6924;52.122;9.952;2023-05-19T00:29:55;1.03;;;1.00;;
13704;SDS011;6924;52.122;9.952;2023-05-19T00:32:22;1.20;;;1.00;;
13704;SDS011;6924;52.122;9.952;2023-05-19T00:34:48;1.43;;;1.33;;
13704;SDS011;6924;52.122;9.952;2023-05-19T00:37:14;1.10;;;0.90;;
13704;SDS011;6924;52.122;9.952;2023-05-19T00:39:41;1.23;;;0.90;;
13704;SDS011;6924;52.122;9.952;2023-05-19T00:42:07;1.10;;;0.93;;
13704;SDS011;6924;52.122;9.952;2023-05-19T00:44:34;2.23;;;1.00;;
13704;SDS011;6924;52.122;9.952;2023-05-19T00:47:06;2.33;;;1.00;;
13704;SDS011;6924;52.122;9.952;2023-05-19T00:49:33;1.57;;;1.40;;
13704;SDS011;6924;52.122;9.952;2023-05-19T00:52:00;0.83;;;0.83;;
13704;SDS011;6924;52.122;9.952;2023-05-19T00:54:27;3.83;;;1.20;;
13704;SDS011;6924;52.122;9.952;2023-05-19T00:56:54;4.10;;;0.90;;
13704;SDS011;6924;52.122;9.952;2023-05-19T00:59:22;1.23;;;1.00;;
13704;SDS011;6924;52.122;9.952;2023-05-19T01:01:48;1.23;;;1.10;;
13704;SDS011;6924;52.122;9.952;2023-05-19T01:04:17;1.53;;;1.10;;
13704;SDS011;6924;52.122;9.952;2023-05-19T01:06:45;0.77;;;0.70;;
13704;SDS011;6924;52.122;9.952;2023-05-19T01:09:12;1.10;;;1.00;;
13704;SDS011;6924;52.122;9.952;2023-05-19T01:11:38;1.33;;;1.00;;
13704;SDS011;6924;52.122;9.952;2023-05-19T01:14:05;3.33;;;0.90;;
13704;SDS011;6924;52.122;9.952;2023-05-19T01:16:33;1.07;;;0.90;;
13704;SDS011;6924;52.122;9.952;2023-05-19T01:19:12;0.90;;;0.90;;
13704;SDS011;6924;52.122;9.952;2023-05-19T01:22:02;1.13;;;0.93;;
13704;SDS011;6924;52.122;9.952;2023-05-19T01:28:13;1.00;;;0.90;;
13704;SDS011;6924;52.122;9.952;2023-05-19T01:30:51;4.33;;;1.93;;
13704;SDS011;6924;52.122;9.952;2023-05-19T01:33:19;0.93;;;0.87;;
13704;SDS011;6924;52.122;9.952;2023-05-19T01:35:47;2.23;;;1.43;;
13704;SDS011;6924;52.122;9.952;2023-05-19T01:38:16;0.90;;;0.90;;
13704;SDS011;6924;52.122;9.952;2023-05-19T01:40:43;1.97;;;1.20;;
13704;SDS011;6924;52.122;9.952;2023-05-19T01:43:13;1.10;;;1.00;;
13704;SDS011;6924;52.122;9.952;2023-05-19T01:45:43;0.80;;;0.80;;
13704;SDS011;6924;52.122;9.952;2023-05-19T01:48:11;1.27;;;1.17;;
13704;SDS011;6924;52.122;9.952;2023-05-19T01:50:38;0.97;;;0.87;;
13704;SDS011;6924;52.122;9.952;2023-05-19T01:53:05;1.00;;;0.80;;
13704;SDS011;6924;52.122;9.952;2023-05-19T01:55:32;1.20;;;1.03;;
13704;SDS011;6924;52.122;9.952;2023-05-19T01:58:01;1.40;;;1.07;;
13704;SDS011;6924;52.122;9.952;2023-05-19T02:00:44;1.83;;;1.00;;
13704;SDS011;6924;52.122;9.952;2023-05-19T02:03:23;0.80;;;0.80;;
13704;SDS011;6924;52.122;9.952;2023-05-19T02:05:58;0.97;;;0.80;;
13704;SDS011;6924;52.122;9.952;2023-05-19T02:08:36;0.87;;;0.87;;
13704;SDS011;6924;52.122;9.952;2023-05-19T02:11:09;1.20;;;1.10;;
13704;SDS011;6924;52.122;9.952;2023-05-19T02:13:41;1.07;;;0.90;;
13704;SDS011;6924;52.122;9.952;2023-05-19T02:16:09;1.50;;;1.10;;
13704;SDS011;6924;52.122;9.952;2023-05-19T02:18:39;1.27;;;1.10;;
13704;SDS011;6924;52.122;9.952;2023-05-19T02:21:09;1.37;;;0.90;;
13704;SDS011;6924;52.122;9.952;2023-05-19T02:23:38;1.63;;;1.23;;
13704;SDS011;6924;52.122;9.952;2023-05-19T02:26:04;1.73;;;1.30;;
13704;SDS011;6924;52.122;9.952;2023-05-19T02:28:32;1.30;;;1.10;;
13704;SDS011;6924;52.122;9.952;2023-05-19T02:30:59;0.83;;;0.83;;
13704;SDS011;6924;52.122;9.952;2023-05-19T02:33:25;1.17;;;1.03;;
13704;SDS011;6924;52.122;9.952;2023-05-19T02:35:55;1.20;;;1.10;;
13704;SDS011;6924;52.122;9.952;2023-05-19T02:38:22;1.17;;;1.10;;
13704;SDS011;6924;52.122;9.952;2023-05-19T02:40:49;2.27;;;1.17;;
13704;SDS011;6924;52.122;9.952;2023-05-19T02:43:16;1.03;;;0.93;;
13704;SDS011;6924;52.122;9.952;2023-05-19T02:45:42;1.00;;;1.00;;
13704;SDS011;6924;52.122;9.952;2023-05-19T02:48:09;1.63;;;1.20;;
13704;SDS011;6924;52.122;9.952;2023-05-19T02:50:35;1.73;;;1.20;;
13704;SDS011;6924;52.122;9.952;2023-05-19T02:53:03;1.37;;;0.90;;
13704;SDS011;6924;52.122;9.952;2023-05-19T02:55:30;1.53;;;1.20;;
13704;SDS011;6924;52.122;9.952;2023-05-19T02:57:56;1.20;;;1.10;;
13704;SDS011;6924;52.122;9.952;2023-05-19T03:00:22;1.20;;;1.10;;
13704;SDS011;6924;52.122;9.952;2023-05-19T03:02:49;1.37;;;1.13;;
13704;SDS011;6924;52.122;9.952;2023-05-19T03:05:16;2.00;;;1.33;;
13704;SDS011;6924;52.122;9.952;2023-05-19T03:07:44;1.43;;;1.20;;
13704;SDS011;6924;52.122;9.952;2023-05-19T03:10:12;1.40;;;1.30;;
13704;SDS011;6924;52.122;9.952;2023-05-19T03:12:38;1.47;;;1.23;;
13704;SDS011;6924;52.122;9.952;2023-05-19T03:15:05;1.33;;;1.23;;
13704;SDS011;6924;52.122;9.952;2023-05-19T03:17:32;1.57;;;1.07;;
13704;SDS011;6924;52.122;9.952;2023-05-19T03:20:00;1.30;;;1.20;;
13704;SDS011;6924;52.122;9.952;2023-05-19T03:22:26;1.20;;;1.10;;
13704;SDS011;6924;52.122;9.952;2023-05-19T03:24:53;3.33;;;1.37;;
13704;SDS011;6924;52.122;9.952;2023-05-19T03:27:21;1.30;;;1.10;;
13704;SDS011;6924;52.122;9.952;2023-05-19T03:29:47;1.93;;;1.33;;
13704;SDS011;6924;52.122;9.952;2023-05-19T03:32:13;2.33;;;1.40;;
13704;SDS011;6924;52.122;9.952;2023-05-19T03:34:40;1.50;;;1.30;;
13704;SDS011;6924;52.122;9.952;2023-05-19T03:37:06;1.33;;;1.10;;
13704;SDS011;6924;52.122;9.952;2023-05-19T03:39:34;1.40;;;1.30;;
13704;SDS011;6924;52.122;9.952;2023-05-19T03:42:01;1.70;;;1.47;;
13704;SDS011;6924;52.122;9.952;2023-05-19T03:44:28;1.43;;;1.20;;
13704;SDS011;6924;52.122;9.952;2023-05-19T03:46:55;1.20;;;1.10;;
13704;SDS011;6924;52.122;9.952;2023-05-19T03:49:21;1.87;;;1.13;;
13704;SDS011;6924;52.122;9.952;2023-05-19T03:51:48;3.10;;;1.40;;
13704;SDS011;6924;52.122;9.952;2023-05-19T03:54:14;1.80;;;1.50;;
13704;SDS011;6924;52.122;9.952;2023-05-19T03:56:40;1.97;;;1.30;;
13704;SDS011;6924;52.122;9.952;2023-05-19T03:59:08;1.70;;;1.33;;
13704;SDS011;6924;52.122;9.952;2023-05-19T04:01:38;1.97;;;1.57;;
13704;SDS011;6924;52.122;9.952;2023-05-19T04:04:04;1.50;;;1.33;;
13704;SDS011;6924;52.122;9.952;2023-05-19T04:06:30;2.17;;;1.23;;
13704;SDS011;6924;52.122;9.952;2023-05-19T04:08:57;2.27;;;1.80;;
13704;SDS011;6924;52.122;9.952;2023-05-19T04:11:24;2.63;;;2.10;;
13704;SDS011;6924;52.122;9.952;2023-05-19T04:13:50;2.83;;;1.37;;
13704;SDS011;6924;52.122;9.952;2023-05-19T04:16:16;1.50;;;1.23;;
13704;SDS011;6924;52.122;9.952;2023-05-19T04:18:44;2.50;;;1.60;;
13704;SDS011;6924;52.122;9.952;2023-05-19T04:21:11;3.83;;;2.17;;
13704;SDS011;6924;52.122;9.952;2023-05-19T04:23:37;1.73;;;1.60;;
13704;SDS011;6924;52.122;9.952;2023-05-19T04:26:03;1.40;;;1.30;;
13704;SDS011;6924;52.122;9.952;2023-05-19T04:28:30;1.60;;;1.50;;
13704;SDS011;6924;52.122;9.952;2023-05-19T04:30:59;1.50;;;1.40;;
13704;SDS011;6924;52.122;9.952;2023-05-19T04:33:27;2.00;;;1.77;;
13704;SDS011;6924;52.122;9.952;2023-05-19T04:35:55;1.63;;;1.53;;
13704;SDS011;6924;52.122;9.952;2023-05-19T04:38:22;1.80;;;1.70;;
13704;SDS011;6924;52.122;9.952;2023-05-19T04:40:48;2.23;;;2.00;;
13704;SDS011;6924;52.122;9.952;2023-05-19T04:43:15;1.43;;;1.33;;
13704;SDS011;6924;52.122;9.952;2023-05-19T04:45:43;1.77;;;1.67;;
13704;SDS011;6924;52.122;9.952;2023-05-19T04:48:10;2.07;;;1.87;;
13704;SDS011;6924;52.122;9.952;2023-05-19T04:50:37;3.00;;;1.80;;
13704;SDS011;6924;52.122;9.952;2023-05-19T04:53:07;1.80;;;1.70;;
13704;SDS011;6924;52.122;9.952;2023-05-19T04:55:33;3.97;;;1.90;;
13704;SDS011;6924;52.122;9.952;2023-05-19T04:58:02;1.93;;;1.80;;
13704;SDS011;6924;52.122;9.952;2023-05-19T05:00:29;2.50;;;1.67;;
13704;SDS011;6924;52.122;9.952;2023-05-19T05:02:55;1.93;;;1.60;;
13704;SDS011;6924;52.122;9.952;2023-05-19T05:05:22;3.00;;;1.80;;
13704;SDS011;6924;52.122;9.952;2023-05-19T05:07:49;1.53;;;1.43;;
13704;SDS011;6924;52.122;9.952;2023-05-19T05:10:19;2.73;;;1.73;;
13704;SDS011;6924;52.122;9.952;2023-05-19T05:12:45;2.63;;;1.93;;
13704;SDS011;6924;52.122;9.952;2023-05-19T05:15:12;3.37;;;2.63;;
13704;SDS011;6924;52.122;9.952;2023-05-19T05:17:40;2.87;;;2.57;;
13704;SDS011;6924;52.122;9.952;2023-05-19T05:20:08;2.43;;;2.23;;
13704;SDS011;6924;52.122;9.952;2023-05-19T05:22:35;2.57;;;1.93;;
13704;SDS011;6924;52.122;9.952;2023-05-19T05:25:03;1.80;;;1.60;;
13704;SDS011;6924;52.122;9.952;2023-05-19T05:27:32;2.67;;;1.93;;
13704;SDS011;6924;52.122;9.952;2023-05-19T05:29:58;2.17;;;1.97;;
13704;SDS011;6924;52.122;9.952;2023-05-19T05:32:25;2.40;;;2.20;;
13704;SDS011;6924;52.122;9.952;2023-05-19T05:34:51;2.17;;;1.73;;
13704;SDS011;6924;52.122;9.952;2023-05-19T05:37:18;2.73;;;2.27;;
13704;SDS011;6924;52.122;9.952;2023-05-19T05:39:44;3.10;;;2.07;;
13704;SDS011;6924;52.122;9.952;2023-05-19T05:42:10;1.60;;;1.50;;
13704;SDS011;6924;52.122;9.952;2023-05-19T05:44:38;2.37;;;2.03;;
13704;SDS011;6924;52.122;9.952;2023-05-19T05:47:05;5.30;;;2.73;;
13704;SDS011;6924;52.122;9.952;2023-05-19T05:49:32;2.30;;;2.10;;
13704;SDS011;6924;52.122;9.952;2023-05-19T05:52:02;2.70;;;1.90;;
13704;SDS011;6924;52.122;9.952;2023-05-19T05:54:29;4.17;;;2.40;;
13704;SDS011;6924;52.122;9.952;2023-05-19T05:56:56;3.17;;;1.87;;
13704;SDS011;6924;52.122;9.952;2023-05-19T05:59:22;2.90;;;1.93;;
13704;SDS011;6924;52.122;9.952;2023-05-19T06:01:50;1.97;;;1.80;;
13704;SDS011;6924;52.122;9.952;2023-05-19T06:04:17;2.27;;;2.07;;
13704;SDS011;6924;52.122;9.952;2023-05-19T06:06:44;4.50;;;2.33;;
13704;SDS011;6924;52.122;9.952;2023-05-19T06:09:11;1.87;;;1.63;;
13704;SDS011;6924;52.122;9.952;2023-05-19T06:11:37;2.20;;;2.00;;
13704;SDS011;6924;52.122;9.952;2023-05-19T06:14:04;1.77;;;1.67;;
13704;SDS011;6924;52.122;9.952;2023-05-19T06:16:30;2.57;;;1.63;;
13704;SDS011;6924;52.122;9.952;2023-05-19T06:18:58;3.33;;;2.10;;
13704;SDS011;6924;52.122;9.952;2023-05-19T06:21:24;7.97;;;1.83;;
13704;SDS011;6924;52.122;9.952;2023-05-19T06:23:51;5.07;;;2.30;;
13704;SDS011;6924;52.122;9.952;2023-05-19T06:26:17;3.03;;;2.00;;
13704;SDS011;6924;52.122;9.952;2023-05-19T06:28:43;3.47;;;1.90;;
13704;SDS011;6924;52.122;9.952;2023-05-19T06:31:10;3.30;;;1.83;;
13704;SDS011;6924;52.122;9.952;2023-05-19T06:33:36;3.77;;;2.30;;
13704;SDS011;6924;52.122;9.952;2023-05-19T06:36:04;2.73;;;1.70;;
13704;SDS011;6924;52.122;9.952;2023-05-19T06:38:32;2.30;;;1.57;;
13704;SDS011;6924;52.122;9.952;2023-05-19T06:40:58;2.83;;;1.83;;
13704;SDS011;6924;52.122;9.952;2023-05-19T06:43:25;2.23;;;1.97;;
13704;SDS011;6924;52.122;9.952;2023-05-19T06:45:51;1.73;;;1.63;;
13704;SDS011;6924;52.122;9.952;2023-05-19T06:48:18;2.10;;;1.90;;
13704;SDS011;6924;52.122;9.952;2023-05-19T06:50:44;3.07;;;1.83;;
13704;SDS011;6924;52.122;9.952;2023-05-19T06:53:12;3.40;;;1.90;;
13704;SDS011;6924;52.122;9.952;2023-05-19T06:55:38;1.80;;;1.50;;
13704;SDS011;6924;52.122;9.952;2023-05-19T06:58:05;2.13;;;1.83;;
13704;SDS011;6924;52.122;9.952;2023-05-19T07:00:31;3.63;;;1.90;;
13704;SDS011;6924;52.122;9.952;2023-05-19T07:02:57;3.33;;;1.70;;
13704;SDS011;6924;52.122;9.952;2023-05-19T07:05:24;1.57;;;1.47;;
13704;SDS011;6924;52.122;9.952;2023-05-19T07:07:50;1.93;;;1.73;;
13704;SDS011;6924;52.122;9.952;2023-05-19T07:10:18;2.77;;;1.90;;
13704;SDS011;6924;52.122;9.952;2023-05-19T07:12:45;3.27;;;2.40;;
13704;SDS011;6924;52.122;9.952;2023-05-19T07:15:11;2.83;;;1.90;;
13704;SDS011;6924;52.122;9.952;2023-05-19T07:17:38;1.87;;;1.50;;
13704;SDS011;6924;52.122;9.952;2023-05-19T07:20:05;2.60;;;1.57;;
13704;SDS011;6924;52.122;9.952;2023-05-19T07:22:34;2.17;;;1.67;;
13704;SDS011;6924;52.122;9.952;2023-05-19T07:25:00;6.87;;;1.83;;
13704;SDS011;6924;52.122;9.952;2023-05-19T07:27:28;2.00;;;1.90;;
13704;SDS011;6924;52.122;9.952;2023-05-19T07:29:54;2.33;;;2.00;;
13704;SDS011;6924;52.122;9.952;2023-05-19T07:32:20;2.03;;;1.80;;
13704;SDS011;6924;52.122;9.952;2023-05-19T07:34:47;3.63;;;1.93;;
13704;SDS011;6924;52.122;9.952;2023-05-19T07:37:13;5.30;;;2.60;;
13704;SDS011;6924;52.122;9.952;2023-05-19T07:39:40;1.67;;;1.20;;
13704;SDS011;6924;52.122;9.952;2023-05-19T07:42:07;2.37;;;1.57;;
13704;SDS011;6924;52.122;9.952;2023-05-19T07:44:34;2.47;;;1.90;;
13704;SDS011;6924;52.122;9.952;2023-05-19T07:47:01;4.67;;;1.73;;
13704;SDS011;6924;52.122;9.952;2023-05-19T07:49:27;2.30;;;1.60;;
13704;SDS011;6924;52.122;9.952;2023-05-19T07:51:54;2.63;;;1.80;;
13704;SDS011;6924;52.122;9.952;2023-05-19T07:54:20;4.13;;;1.87;;
13704;SDS011;6924;52.122;9.952;2023-05-19T07:56:47;2.33;;;1.57;;
13704;SDS011;6924;52.122;9.952;2023-05-19T07:59:13;4.07;;;1.87;;
13704;SDS011;6924;52.122;9.952;2023-05-19T08:01:41;1.97;;;1.43;;
13704;SDS011;6924;52.122;9.952;2023-05-19T08:04:07;2.67;;;1.70;;
13704;SDS011;6924;52.122;9.952;2023-05-19T08:06:35;1.50;;;1.40;;
13704;SDS011;6924;52.122;9.952;2023-05-19T08:09:01;1.63;;;1.40;;
13704;SDS011;6924;52.122;9.952;2023-05-19T08:11:29;2.77;;;1.67;;
13704;SDS011;6924;52.122;9.952;2023-05-19T08:13:55;3.53;;;1.87;;
13704;SDS011;6924;52.122;9.952;2023-05-19T08:16:22;2.87;;;1.23;;
13704;SDS011;6924;52.122;9.952;2023-05-19T08:18:49;2.00;;;1.20;;
13704;SDS011;6924;52.122;9.952;2023-05-19T08:21:16;1.97;;;1.27;;
13704;SDS011;6924;52.122;9.952;2023-05-19T08:23:42;1.27;;;1.10;;
13704;SDS011;6924;52.122;9.952;2023-05-19T08:26:09;3.50;;;1.63;;
13704;SDS011;6924;52.122;9.952;2023-05-19T08:28:35;3.57;;;1.23;;
13704;SDS011;6924;52.122;9.952;2023-05-19T08:31:01;2.43;;;1.47;;
13704;SDS011;6924;52.122;9.952;2023-05-19T08:33:28;2.43;;;1.30;;
13704;SDS011;6924;52.122;9.952;2023-05-19T08:35:55;2.00;;;1.37;;
13704;SDS011;6924;52.122;9.952;2023-05-19T08:38:22;4.90;;;1.60;;
13704;SDS011;6924;52.122;9.952;2023-05-19T08:40:49;2.17;;;1.47;;
13704;SDS011;6924;52.122;9.952;2023-05-19T08:43:15;1.20;;;1.07;;
13704;SDS011;6924;52.122;9.952;2023-05-19T08:45:42;3.77;;;1.30;;
13704;SDS011;6924;52.122;9.952;2023-05-19T08:48:11;3.83;;;1.20;;
13704;SDS011;6924;52.122;9.952;2023-05-19T08:50:39;2.00;;;1.10;;
13704;SDS011;6924;52.122;9.952;2023-05-19T08:53:10;1.53;;;1.27;;
13704;SDS011;6924;52.122;9.952;2023-05-19T08:55:39;1.73;;;1.63;;
13704;SDS011;6924;52.122;9.952;2023-05-19T08:58:08;2.77;;;1.33;;
13704;SDS011;6924;52.122;9.952;2023-05-19T09:00:38;2.10;;;1.20;;
13704;SDS011;6924;52.122;9.952;2023-05-19T09:03:05;2.10;;;1.30;;
13704;SDS011;6924;52.122;9.952;2023-05-19T09:05:32;2.50;;;1.70;;
13704;SDS011;6924;52.122;9.952;2023-05-19T09:07:59;5.63;;;1.53;;
13704;SDS011;6924;52.122;9.952;2023-05-19T09:10:28;1.50;;;1.30;;
13704;SDS011;6924;52.122;9.952;2023-05-19T09:12:54;1.13;;;1.03;;
13704;SDS011;6924;52.122;9.952;2023-05-19T09:15:21;2.93;;;1.10;;
13704;SDS011;6924;52.122;9.952;2023-05-19T09:17:56;1.10;;;0.90;;
13704;SDS011;6924;52.122;9.952;2023-05-19T09:20:30;1.03;;;0.70;;
13704;SDS011;6924;52.122;9.952;2023-05-19T09:22:57;7.20;;;1.00;;
13704;SDS011;6924;52.122;9.952;2023-05-19T09:25:24;1.63;;;0.97;;
13704;SDS011;6924;52.122;9.952;2023-05-19T09:27:53;2.20;;;1.00;;
13704;SDS011;6924;52.122;9.952;2023-05-19T09:30:20;2.20;;;1.20;;
13704;SDS011;6924;52.122;9.952;2023-05-19T09:32:49;0.97;;;0.87;;
13704;SDS011;6924;52.122;9.952;2023-05-19T09:35:16;1.07;;;1.00;;
13704;SDS011;6924;52.122;9.952;2023-05-19T09:37:44;1.53;;;0.90;;
13704;SDS011;6924;52.122;9.952;2023-05-19T09:40:12;1.40;;;1.00;;
13704;SDS011;6924;52.122;9.952;2023-05-19T09:42:39;0.93;;;0.90;;
13704;SDS011;6924;52.122;9.952;2023-05-19T09:45:08;3.27;;;1.10;;
13704;SDS011;6924;52.122;9.952;2023-05-19T09:47:35;1.83;;;1.37;;
13704;SDS011;6924;52.122;9.952;2023-05-19T09:50:06;2.80;;;1.13;;
13704;SDS011;6924;52.122;9.952;2023-05-19T09:52:34;3.13;;;1.30;;
13704;SDS011;6924;52.122;9.952;2023-05-19T09:55:03;2.17;;;1.23;;
13704;SDS011;6924;52.122;9.952;2023-05-19T09:57:33;0.80;;;0.80;;
13704;SDS011;6924;52.122;9.952;2023-05-19T10:00:02;0.93;;;0.70;;
13704;SDS011;6924;52.122;9.952;2023-05-19T10:02:41;0.73;;;0.70;;
13704;SDS011;6924;52.122;9.952;2023-05-19T10:05:09;1.43;;;0.87;;
13704;SDS011;6924;52.122;9.952;2023-05-19T10:07:38;1.57;;;0.90;;
13704;SDS011;6924;52.122;9.952;2023-05-19T10:10:08;0.70;;;0.67;;
13704;SDS011;6924;52.122;9.952;2023-05-19T10:12:36;1.10;;;0.80;;
13704;SDS011;6924;52.122;9.952;2023-05-19T10:15:04;1.07;;;0.70;;
13704;SDS011;6924;52.122;9.952;2023-05-19T10:17:32;0.67;;;0.63;;
13704;SDS011;6924;52.122;9.952;2023-05-19T10:20:02;0.80;;;0.80;;
13704;SDS011;6924;52.122;9.952;2023-05-19T10:22:30;1.40;;;0.80;;
13704;SDS011;6924;52.122;9.952;2023-05-19T10:24:57;0.83;;;0.70;;
13704;SDS011;6924;52.122;9.952;2023-05-19T10:27:23;1.23;;;0.93;;
13704;SDS011;6924;52.122;9.952;2023-05-19T10:29:52;0.80;;;0.67;;
13704;SDS011;6924;52.122;9.952;2023-05-19T10:32:23;1.47;;;0.80;;
13704;SDS011;6924;52.122;9.952;2023-05-19T10:35:03;0.90;;;0.60;;
13704;SDS011;6924;52.122;9.952;2023-05-19T10:37:40;1.90;;;0.90;;
13704;SDS011;6924;52.122;9.952;2023-05-19T10:40:11;2.23;;;0.80;;
13704;SDS011;6924;52.122;9.952;2023-05-19T10:42:48;2.17;;;1.23;;
13704;SDS011;6924;52.122;9.952;2023-05-19T10:45:22;1.20;;;0.87;;
13704;SDS011;6924;52.122;9.952;2023-05-19T10:47:53;1.40;;;1.30;;
13704;SDS011;6924;52.122;9.952;2023-05-19T10:50:20;1.40;;;1.03;;
13704;SDS011;6924;52.122;9.952;2023-05-19T10:52:51;1.00;;;0.90;;
13704;SDS011;6924;52.122;9.952;2023-05-19T10:55:18;1.43;;;1.10;;
13704;SDS011;6924;52.122;9.952;2023-05-19T10:58:12;3.33;;;1.20;;
13704;SDS011;6924;52.122;9.952;2023-05-19T11:00:38;2.23;;;0.93;;
13704;SDS011;6924;52.122;9.952;2023-05-19T11:03:12;1.10;;;1.00;;
13704;SDS011;6924;52.122;9.952;2023-05-19T11:05:40;2.17;;;0.87;;
13704;SDS011;6924;52.122;9.952;2023-05-19T11:08:10;1.73;;;1.00;;
13704;SDS011;6924;52.122;9.952;2023-05-19T11:10:37;1.17;;;0.70;;
13704;SDS011;6924;52.122;9.952;2023-05-19T11:13:03;1.07;;;1.07;;
13704;SDS011;6924;52.122;9.952;2023-05-19T11:15:33;1.10;;;1.00;;
13704;SDS011;6924;52.122;9.952;2023-05-19T11:18:00;1.07;;;0.60;;
13704;SDS011;6924;52.122;9.952;2023-05-19T11:20:27;2.50;;;1.00;;
13704;SDS011;6924;52.122;9.952;2023-05-19T11:23:06;1.63;;;0.60;;
13704;SDS011;6924;52.122;9.952;2023-05-19T11:25:41;1.13;;;0.90;;
13704;SDS011;6924;52.122;9.952;2023-05-19T11:28:12;1.30;;;0.87;;
13704;SDS011;6924;52.122;9.952;2023-05-19T11:30:41;1.20;;;1.10;;
13704;SDS011;6924;52.122;9.952;2023-05-19T11:33:09;2.10;;;0.70;;
13704;SDS011;6924;52.122;9.952;2023-05-19T11:35:35;1.40;;;0.90;;
13704;SDS011;6924;52.122;9.952;2023-05-19T11:38:02;1.23;;;0.60;;
13704;SDS011;6924;52.122;9.952;2023-05-19T11:40:30;1.53;;;0.77;;
13704;SDS011;6924;52.122;9.952;2023-05-19T11:42:57;1.50;;;0.97;;
13704;SDS011;6924;52.122;9.952;2023-05-19T11:45:26;1.03;;;0.97;;
13704;SDS011;6924;52.122;9.952;2023-05-19T11:47:53;2.00;;;0.90;;
13704;SDS011;6924;52.122;9.952;2023-05-19T11:50:21;0.70;;;0.70;;
13704;SDS011;6924;52.122;9.952;2023-05-19T11:52:47;3.37;;;0.83;;
13704;SDS011;6924;52.122;9.952;2023-05-19T11:55:15;0.83;;;0.50;;
13704;SDS011;6924;52.122;9.952;2023-05-19T11:57:50;0.60;;;0.60;;
13704;SDS011;6924;52.122;9.952;2023-05-19T12:00:22;0.80;;;0.60;;
13704;SDS011;6924;52.122;9.952;2023-05-19T12:02:49;1.17;;;0.67;;
13704;SDS011;6924;52.122;9.952;2023-05-19T12:05:19;1.30;;;0.80;;
13704;SDS011;6924;52.122;9.952;2023-05-19T12:07:47;0.70;;;0.70;;
13704;SDS011;6924;52.122;9.952;2023-05-19T12:10:15;1.93;;;0.57;;
13704;SDS011;6924;52.122;9.952;2023-05-19T12:12:44;0.90;;;0.60;;
13704;SDS011;6924;52.122;9.952;2023-05-19T12:15:12;1.50;;;1.00;;
13704;SDS011;6924;52.122;9.952;2023-05-19T12:17:40;2.30;;;1.00;;
13704;SDS011;6924;52.122;9.952;2023-05-19T12:20:07;1.30;;;0.80;;
13704;SDS011;6924;52.122;9.952;2023-05-19T12:22:34;1.30;;;0.97;;
13704;SDS011;6924;52.122;9.952;2023-05-19T12:25:01;0.60;;;0.60;;
13704;SDS011;6924;52.122;9.952;2023-05-19T12:27:29;2.30;;;1.00;;
13704;SDS011;6924;52.122;9.952;2023-05-19T12:29:55;1.03;;;0.60;;
13704;SDS011;6924;52.122;9.952;2023-05-19T12:32:23;0.97;;;0.70;;
13704;SDS011;6924;52.122;9.952;2023-05-19T12:34:51;0.93;;;0.70;;
13704;SDS011;6924;52.122;9.952;2023-05-19T12:37:18;1.30;;;0.70;;
13704;SDS011;6924;52.122;9.952;2023-05-19T12:39:45;4.10;;;0.60;;
13704;SDS011;6924;52.122;9.952;2023-05-19T12:42:14;1.73;;;0.60;;
13704;SDS011;6924;52.122;9.952;2023-05-19T12:44:41;0.60;;;0.50;;
13704;SDS011;6924;52.122;9.952;2023-05-19T12:47:11;0.73;;;0.47;;
13704;SDS011;6924;52.122;9.952;2023-05-19T12:49:53;0.73;;;0.50;;
13704;SDS011;6924;52.122;9.952;2023-05-19T12:52:20;0.50;;;0.50;;
13704;SDS011;6924;52.122;9.952;2023-05-19T12:54:47;0.60;;;0.60;;
13704;SDS011;6924;52.122;9.952;2023-05-19T12:57:15;0.40;;;0.40;;
13704;SDS011;6924;52.122;9.952;2023-05-19T12:59:41;1.33;;;1.13;;
13704;SDS011;6924;52.122;9.952;2023-05-19T13:02:08;1.63;;;0.60;;
13704;SDS011;6924;52.122;9.952;2023-05-19T13:04:34;0.50;;;0.50;;
13704;SDS011;6924;52.122;9.952;2023-05-19T13:07:02;0.77;;;0.60;;
13704;SDS011;6924;52.122;9.952;2023-05-19T13:09:28;0.43;;;0.40;;
13704;SDS011;6924;52.122;9.952;2023-05-19T13:11:58;0.70;;;0.60;;
13704;SDS011;6924;52.122;9.952;2023-05-19T13:14:25;1.80;;;0.50;;
13704;SDS011;6924;52.122;9.952;2023-05-19T13:16:52;0.80;;;0.50;;
13704;SDS011;6924;52.122;9.952;2023-05-19T13:19:18;1.83;;;0.70;;
13704;SDS011;6924;52.122;9.952;2023-05-19T13:21:45;0.40;;;0.40;;
13704;SDS011;6924;52.122;9.952;2023-05-19T13:24:14;0.77;;;0.50;;
13704;SDS011;6924;52.122;9.952;2023-05-19T13:26:40;1.33;;;0.60;;
13704;SDS011;6924;52.122;9.952;2023-05-19T13:29:06;0.90;;;0.90;;
13704;SDS011;6924;52.122;9.952;2023-05-19T13:31:33;0.43;;;0.43;;
13704;SDS011;6924;52.122;9.952;2023-05-19T13:34:00;0.60;;;0.50;;
13704;SDS011;6924;52.122;9.952;2023-05-19T13:36:27;0.60;;;0.57;;
13704;SDS011;6924;52.122;9.952;2023-05-19T13:38:53;1.47;;;0.47;;
13704;SDS011;6924;52.122;9.952;2023-05-19T13:41:24;0.67;;;0.50;;
13704;SDS011;6924;52.122;9.952;2023-05-19T13:43:51;0.43;;;0.30;;
13704;SDS011;6924;52.122;9.952;2023-05-19T13:46:17;1.87;;;0.50;;
13704;SDS011;6924;52.122;9.952;2023-05-19T13:48:44;0.63;;;0.43;;
13704;SDS011;6924;52.122;9.952;2023-05-19T13:51:10;0.73;;;0.57;;
13704;SDS011;6924;52.122;9.952;2023-05-19T13:53:37;0.60;;;0.50;;
13704;SDS011;6924;52.122;9.952;2023-05-19T13:56:04;1.00;;;0.60;;
13704;SDS011;6924;52.122;9.952;2023-05-19T13:58:32;0.83;;;0.53;;
13704;SDS011;6924;52.122;9.952;2023-05-19T14:00:59;2.97;;;1.00;;
13704;SDS011;6924;52.122;9.952;2023-05-19T14:03:25;1.00;;;0.60;;
13704;SDS011;6924;52.122;9.952;2023-05-19T14:05:52;0.70;;;0.60;;
13704;SDS011;6924;52.122;9.952;2023-05-19T14:08:18;0.60;;;0.60;;
13704;SDS011;6924;52.122;9.952;2023-05-19T14:10:46;0.50;;;0.43;;
13704;SDS011;6924;52.122;9.952;2023-05-19T14:13:12;0.70;;;0.70;;
13704;SDS011;6924;52.122;9.952;2023-05-19T14:15:40;1.10;;;0.47;;
13704;SDS011;6924;52.122;9.952;2023-05-19T14:18:06;0.40;;;0.40;;
13704;SDS011;6924;52.122;9.952;2023-05-19T14:20:33;1.73;;;1.37;;
13704;SDS011;6924;52.122;9.952;2023-05-19T14:22:59;0.50;;;0.50;;
13704;SDS011;6924;52.122;9.952;2023-05-19T14:25:29;0.60;;;0.40;;
13704;SDS011;6924;52.122;9.952;2023-05-19T14:27:56;0.90;;;0.50;;
13704;SDS011;6924;52.122;9.952;2023-05-19T14:30:22;1.53;;;0.47;;
13704;SDS011;6924;52.122;9.952;2023-05-19T14:32:50;1.00;;;0.50;;
13704;SDS011;6924;52.122;9.952;2023-05-19T14:35:16;1.10;;;0.47;;
13704;SDS011;6924;52.122;9.952;2023-05-19T14:37:43;2.93;;;0.90;;
13704;SDS011;6924;52.122;9.952;2023-05-19T14:40:09;1.40;;;0.57;;
13704;SDS011;6924;52.122;9.952;2023-05-19T14:42:37;1.90;;;0.73;;
13704;SDS011;6924;52.122;9.952;2023-05-19T14:45:03;0.60;;;0.50;;
13704;SDS011;6924;52.122;9.952;2023-05-19T14:47:30;0.50;;;0.50;;
13704;SDS011;6924;52.122;9.952;2023-05-19T14:49:59;0.33;;;0.30;;
13704;SDS011;6924;52.122;9.952;2023-05-19T14:52:25;0.77;;;0.50;;
13704;SDS011;6924;52.122;9.952;2023-05-19T14:54:51;1.20;;;0.70;;
13704;SDS011;6924;52.122;9.952;2023-05-19T14:57:18;0.60;;;0.60;;
13704;SDS011;6924;52.122;9.952;2023-05-19T14:59:46;1.27;;;0.60;;
13704;SDS011;6924;52.122;9.952;2023-05-19T15:02:12;0.70;;;0.60;;
13704;SDS011;6924;52.122;9.952;2023-05-19T15:04:39;0.63;;;0.50;;
13704;SDS011;6924;52.122;9.952;2023-05-19T15:07:06;1.20;;;0.90;;